Time;durP1;ratioP1;P1;durP2;ratioP2;P2;SDS_P1;SDS_P2;PMS_P1;PMS_P2;Temp;Humidity;BMP_temperature;BMP_pressure;BME280_temperature;BME280_humidity;BME280_pressure;Samples;Min_cycle;Max_cycle;Signal;HPM_P1;HPM_P2
2022/12/31 00:01:25;;;;;;;1.08;0.80;;;18.40;57.10;;;;;;5055583;28;20175;-61
2022/12/31 00:03:51;;;;;;;0.73;0.65;;;18.40;57.10;;;;;;5054988;28;20567;-61
2022/12/31 00:06:20;;;;;;;0.50;0.50;;;18.40;57.20;;;;;;5055617;28;20617;-60
2022/12/31 00:08:46;;;;;;;0.73;0.70;;;18.40;57.20;;;;;;5053767;28;20253;-60
2022/12/31 00:11:11;;;;;;;0.80;0.70;;;18.30;57.30;;;;;;5055621;28;20195;-60
2022/12/31 00:13:37;;;;;;;0.73;0.73;;;18.30;57.20;;;;;;5055520;28;20174;-61
2022/12/31 00:16:10;;;;;;;0.70;0.60;;;18.30;57.20;;;;;;5054760;28;20538;-61
2022/12/31 00:18:36;;;;;;;1.00;0.80;;;18.30;57.40;;;;;;5054891;28;20697;-61
2022/12/31 00:21:07;;;;;;;0.60;0.60;;;18.30;57.40;;;;;;5055351;28;20298;-61
2022/12/31 00:23:32;;;;;;;0.85;0.77;;;18.30;57.40;;;;;;5054663;28;20229;-60
2022/12/31 00:26:02;;;;;;;0.70;0.70;;;18.20;57.40;;;;;;5055511;28;20175;-60
2022/12/31 00:28:28;;;;;;;0.75;0.60;;;18.30;57.40;;;;;;5054957;28;20222;-61
2022/12/31 00:30:53;;;;;;;0.80;0.60;;;18.30;57.50;;;;;;5054472;28;20179;-60
2022/12/31 00:33:19;;;;;;;0.63;0.63;;;18.20;57.50;;;;;;5055139;28;20176;-61
2022/12/31 00:35:44;;;;;;;0.95;0.68;;;18.20;57.60;;;;;;5053666;28;20171;-61
2022/12/31 00:38:10;;;;;;;0.73;0.70;;;18.20;57.70;;;;;;5054699;28;20265;-61
2022/12/31 00:40:35;;;;;;;0.65;0.60;;;18.20;57.70;;;;;;5054782;28;20182;-61
2022/12/31 00:43:01;;;;;;;1.10;0.93;;;18.20;57.60;;;;;;5054863;28;20258;-61
2022/12/31 00:45:26;;;;;;;0.52;0.52;;;18.20;57.60;;;;;;5054579;28;20258;-61
2022/12/31 00:47:52;;;;;;;1.05;0.95;;;18.20;57.60;;;;;;5054602;28;20238;-61
2022/12/31 00:50:17;;;;;;;1.15;1.05;;;18.20;57.70;;;;;;5054956;28;20561;-61
2022/12/31 00:52:43;;;;;;;0.70;0.60;;;18.20;57.60;;;;;;5054039;28;20672;-61
2022/12/31 00:55:08;;;;;;;1.50;0.73;;;18.20;57.80;;;;;;5054844;28;20199;-61
2022/12/31 00:57:34;;;;;;;0.60;0.60;;;18.20;57.80;;;;;;5054318;28;20202;-61
2022/12/31 00:59:59;;;;;;;0.60;0.60;;;18.20;57.80;;;;;;5054107;28;20753;-61
2022/12/31 01:02:25;;;;;;;1.25;0.65;;;18.10;57.80;;;;;;5054526;28;20187;-61
2022/12/31 01:04:50;;;;;;;1.13;0.90;;;18.10;57.70;;;;;;5054070;28;20191;-61
2022/12/31 01:07:16;;;;;;;0.55;0.55;;;18.10;57.80;;;;;;5053838;28;20214;-61
2022/12/31 01:09:41;;;;;;;0.95;0.90;;;18.10;57.80;;;;;;5054103;28;20182;-61
2022/12/31 01:12:07;;;;;;;1.13;0.65;;;18.10;57.80;;;;;;5053967;28;20175;-61
2022/12/31 01:14:32;;;;;;;0.60;0.60;;;18.10;57.80;;;;;;5054188;28;20179;-61
2022/12/31 01:16:58;;;;;;;0.60;0.60;;;18.10;57.90;;;;;;5054303;28;20594;-61
2022/12/31 01:19:25;;;;;;;1.52;0.70;;;18.10;57.80;;;;;;5053554;28;20982;-62
2022/12/31 01:21:51;;;;;;;0.60;0.60;;;18.10;57.80;;;;;;5054152;28;20195;-61
2022/12/31 01:24:16;;;;;;;0.70;0.70;;;18.10;57.90;;;;;;5053952;28;20179;-61
2022/12/31 01:26:42;;;;;;;0.65;0.65;;;18.10;58.00;;;;;;5053332;28;20241;-61
2022/12/31 01:29:08;;;;;;;0.73;0.60;;;18.00;57.80;;;;;;5054155;28;20189;-61
2022/12/31 01:31:33;;;;;;;1.33;0.70;;;18.10;57.90;;;;;;5053591;28;20171;-61
2022/12/31 01:33:59;;;;;;;0.60;0.60;;;18.10;58.60;;;;;;5053637;28;20667;-61
2022/12/31 01:36:26;;;;;;;0.70;0.70;;;18.00;57.90;;;;;;5054194;28;20171;-61
2022/12/31 01:38:53;;;;;;;0.80;0.77;;;18.00;57.90;;;;;;5053292;28;20650;-61
2022/12/31 01:41:24;;;;;;;0.75;0.63;;;18.00;57.90;;;;;;5053464;28;20183;-62
2022/12/31 01:43:53;;;;;;;1.00;0.60;;;18.00;57.90;;;;;;5053557;28;20179;-62
2022/12/31 01:46:46;;;;;;;1.20;0.80;;;18.00;58.00;;;;;;5053409;28;20187;-61
2022/12/31 01:49:29;;;;;;;0.70;0.50;;;18.00;58.00;;;;;;5052024;28;20649;-61
2022/12/31 01:52:24;;;;;;;0.60;0.60;;;18.00;58.00;;;;;;5052359;28;20233;-61
2022/12/31 01:54:54;;;;;;;0.65;0.65;;;18.00;58.00;;;;;;5053094;28;20181;-61
2022/12/31 01:57:20;;;;;;;0.68;0.65;;;18.00;58.00;;;;;;5053564;28;20633;-61
2022/12/31 01:59:45;;;;;;;1.08;0.98;;;18.00;58.00;;;;;;5052032;28;20329;-61
2022/12/31 02:02:11;;;;;;;0.80;0.80;;;18.00;58.00;;;;;;5053110;28;20541;-61
2022/12/31 02:04:37;;;;;;;0.95;0.60;;;18.00;58.00;;;;;;5051925;28;20577;-61
2022/12/31 02:07:07;;;;;;;0.70;0.70;;;18.00;58.00;;;;;;5051900;28;20246;-61
2022/12/31 02:09:32;;;;;;;0.60;0.60;;;18.00;58.10;;;;;;5051617;28;20179;-60
2022/12/31 02:11:58;;;;;;;0.70;0.70;;;18.00;58.70;;;;;;5052376;28;20550;-61
2022/12/31 02:14:32;;;;;;;0.50;0.50;;;17.90;58.00;;;;;;5053128;28;20175;-61
2022/12/31 02:17:26;;;;;;;1.38;0.60;;;17.90;58.00;;;;;;5051435;28;20219;-61
2022/12/31 02:20:19;;;;;;;0.57;0.55;;;17.90;58.00;;;;;;5053102;28;20175;-61
2022/12/31 02:23:32;;;;;;;0.80;0.70;;;17.90;58.00;;;;;;5052434;28;20174;-61
2022/12/31 02:26:03;;;;;;;0.70;0.50;;;17.90;58.00;;;;;;5030937;28;20207;-61
2022/12/31 02:29:10;;;;;;;1.20;0.80;;;17.90;58.00;;;;;;5030793;28;20216;-61
2022/12/31 02:31:44;;;;;;;0.60;0.60;;;17.90;58.00;;;;;;5029666;28;20194;-61
2022/12/31 02:34:32;;;;;;;0.80;0.77;;;17.90;58.00;;;;;;5051828;28;20707;-61
2022/12/31 02:36:59;;;;;;;0.75;0.60;;;17.90;58.00;;;;;;5051430;28;20625;-61
2022/12/31 02:39:24;;;;;;;0.60;0.50;;;17.80;58.00;;;;;;5051859;28;20174;-61
2022/12/31 02:41:50;;;;;;;0.82;0.70;;;17.80;58.00;;;;;;5051261;28;20198;-61
2022/12/31 02:44:32;;;;;;;0.63;0.60;;;17.80;58.00;;;;;;5052479;28;20171;-61
2022/12/31 02:47:04;;;;;;;1.17;0.73;;;17.80;58.10;;;;;;5052962;28;20309;-61
2022/12/31 02:49:50;;;;;;;0.95;0.50;;;17.80;58.00;;;;;;5052692;28;20183;-61
2022/12/31 02:52:44;;;;;;;0.73;0.70;;;17.80;58.00;;;;;;5051621;28;20189;-61
2022/12/31 02:55:30;;;;;;;0.50;0.50;;;17.80;58.00;;;;;;5052927;28;20225;-61
2022/12/31 02:58:13;;;;;;;1.50;0.60;;;17.80;58.10;;;;;;5052454;28;20245;-60
2022/12/31 03:03:29;;;;;;;0.50;0.50;;;17.80;58.00;;;;;;5055771;28;20559;-61
2022/12/31 03:05:55;;;;;;;0.52;0.52;;;17.80;58.00;;;;;;5055033;28;20163;-61
2022/12/31 03:08:24;;;;;;;0.52;0.52;;;17.80;58.00;;;;;;5055620;28;20670;-61
2022/12/31 03:10:50;;;;;;;0.73;0.70;;;17.80;58.60;;;;;;5056297;28;20178;-60
2022/12/31 03:13:15;;;;;;;0.68;0.52;;;17.80;58.00;;;;;;5056255;28;20229;-61
2022/12/31 03:16:04;;;;;;;0.63;0.50;;;17.80;58.00;;;;;;5056353;28;20175;-62
2022/12/31 03:22:26;;;;;;;1.38;0.73;;;17.80;58.00;;;;;;5055294;28;20226;-61
2022/12/31 03:27:06;;;;;;;0.98;0.70;;;17.70;58.00;;;;;;5033884;28;20632;-60
2022/12/31 03:29:31;;;;;;;0.60;0.60;;;17.70;58.00;;;;;;5034141;28;20184;-60
2022/12/31 03:31:57;;;;;;;0.57;0.57;;;17.70;58.00;;;;;;5039773;28;20194;-60
2022/12/31 03:34:22;;;;;;;0.93;0.60;;;17.70;58.10;;;;;;5055651;28;20171;-60
2022/12/31 03:36:48;;;;;;;0.90;0.63;;;17.70;58.10;;;;;;5055914;28;20191;-61
2022/12/31 03:39:13;;;;;;;0.73;0.73;;;17.70;58.00;;;;;;5056182;28;20175;-61
2022/12/31 03:41:39;;;;;;;1.00;0.60;;;17.70;58.20;;;;;;5055562;28;20175;-61
2022/12/31 03:44:04;;;;;;;0.80;0.60;;;17.70;58.10;;;;;;5056302;28;20178;-61
2022/12/31 03:46:30;;;;;;;0.60;0.60;;;17.70;58.00;;;;;;5055799;28;20168;-61
2022/12/31 03:48:55;;;;;;;0.70;0.60;;;17.70;58.10;;;;;;5055162;28;20215;-61
2022/12/31 03:51:21;;;;;;;0.50;0.50;;;17.70;58.10;;;;;;5056232;28;20174;-61
2022/12/31 03:53:46;;;;;;;0.35;0.35;;;17.70;58.10;;;;;;5055524;28;20262;-60
2022/12/31 03:56:12;;;;;;;1.33;0.60;;;17.70;58.10;;;;;;5055533;28;20265;-60
2022/12/31 03:58:37;;;;;;;0.80;0.60;;;17.70;58.10;;;;;;5055427;28;20258;-61
2022/12/31 04:01:03;;;;;;;0.50;0.50;;;17.60;58.10;;;;;;5055230;28;20263;-60
2022/12/31 04:03:28;;;;;;;0.80;0.63;;;17.70;58.20;;;;;;5055706;28;20175;-61
2022/12/31 04:05:54;;;;;;;0.88;0.68;;;17.60;58.00;;;;;;5055141;28;20179;-60
2022/12/31 04:08:20;;;;;;;0.73;0.40;;;17.60;58.10;;;;;;5055345;28;20228;-61
2022/12/31 04:10:45;;;;;;;0.85;0.43;;;17.60;58.10;;;;;;5055443;28;20178;-61
2022/12/31 04:13:11;;;;;;;0.60;0.60;;;17.60;58.70;;;;;;5055408;28;20239;-61
2022/12/31 04:15:36;;;;;;;0.40;0.40;;;17.50;58.00;;;;;;5054902;28;20179;-61
2022/12/31 04:18:02;;;;;;;0.50;0.50;;;17.60;58.10;;;;;;5055336;28;20227;-61
2022/12/31 04:20:27;;;;;;;0.70;0.47;;;17.60;58.10;;;;;;5055219;28;20178;-61
2022/12/31 04:22:53;;;;;;;0.60;0.60;;;17.60;58.10;;;;;;5054759;28;20220;-61
2022/12/31 04:25:18;;;;;;;0.55;0.55;;;17.60;58.10;;;;;;5055519;28;20175;-61
2022/12/31 04:27:44;;;;;;;0.60;0.60;;;17.60;58.20;;;;;;5054700;28;20253;-61
2022/12/31 04:30:10;;;;;;;0.65;0.40;;;17.60;58.10;;;;;;5054927;28;20218;-60
2022/12/31 04:32:36;;;;;;;0.52;0.52;;;17.60;58.20;;;;;;5055070;28;20240;-62
2022/12/31 04:35:01;;;;;;;0.63;0.57;;;17.60;58.20;;;;;;5055003;28;20587;-61
2022/12/31 04:37:27;;;;;;;0.30;0.30;;;17.60;58.20;;;;;;5054835;28;20639;-62
2022/12/31 04:39:52;;;;;;;1.48;0.60;;;17.60;58.20;;;;;;5054700;28;20510;-61
2022/12/31 04:42:18;;;;;;;0.70;0.60;;;17.60;58.20;;;;;;5054861;28;20233;-61
2022/12/31 04:44:43;;;;;;;0.77;0.50;;;17.60;58.20;;;;;;5054184;28;20171;-61
2022/12/31 04:47:09;;;;;;;0.50;0.50;;;17.50;58.10;;;;;;5054876;28;20207;-61
2022/12/31 04:49:34;;;;;;;0.47;0.47;;;17.60;58.20;;;;;;5054335;28;20193;-61
2022/12/31 04:52:00;;;;;;;1.30;0.50;;;17.60;58.20;;;;;;5054491;28;20548;-62
2022/12/31 04:54:25;;;;;;;0.95;0.57;;;17.60;58.20;;;;;;5054926;28;20720;-61
2022/12/31 04:56:51;;;;;;;0.88;0.50;;;17.50;58.20;;;;;;5054445;28;20653;-61
2022/12/31 04:59:16;;;;;;;0.60;0.60;;;17.50;58.20;;;;;;5054398;28;20171;-61
2022/12/31 05:01:42;;;;;;;0.95;0.65;;;17.50;58.20;;;;;;5054271;28;20171;-61
2022/12/31 05:04:07;;;;;;;0.77;0.50;;;17.50;58.20;;;;;;5054613;28;20581;-61
2022/12/31 05:06:33;;;;;;;0.70;0.52;;;17.50;58.20;;;;;;5054026;28;20167;-61
2022/12/31 05:08:59;;;;;;;0.70;0.60;;;17.40;58.10;;;;;;5054132;28;20240;-61
2022/12/31 05:11:24;;;;;;;0.90;0.50;;;17.50;58.20;;;;;;5053959;28;20173;-61
2022/12/31 05:13:50;;;;;;;0.40;0.40;;;17.50;58.20;;;;;;5054171;28;20193;-61
2022/12/31 05:16:15;;;;;;;0.60;0.60;;;17.50;58.20;;;;;;5054050;28;20626;-61
2022/12/31 05:18:41;;;;;;;0.50;0.50;;;17.50;58.20;;;;;;5053265;28;20227;-61
2022/12/31 05:21:06;;;;;;;0.75;0.60;;;17.50;58.30;;;;;;5054373;28;20191;-61
2022/12/31 05:23:32;;;;;;;0.70;0.50;;;17.50;58.20;;;;;;5053425;28;20308;-61
2022/12/31 05:25:58;;;;;;;0.40;0.40;;;17.50;58.30;;;;;;5053846;28;20250;-61
2022/12/31 05:28:24;;;;;;;0.63;0.40;;;17.50;58.30;;;;;;5054142;28;20211;-61
2022/12/31 05:30:49;;;;;;;0.70;0.70;;;17.40;58.20;;;;;;5053593;28;20179;-61
2022/12/31 05:33:15;;;;;;;0.30;0.30;;;17.50;58.30;;;;;;5053589;28;20621;-61
2022/12/31 05:35:41;;;;;;;0.60;0.50;;;17.50;58.30;;;;;;5053895;28;20201;-61
2022/12/31 05:38:06;;;;;;;0.43;0.38;;;17.40;58.20;;;;;;5053750;28;20593;-61
2022/12/31 05:40:32;;;;;;;0.88;0.60;;;17.40;58.30;;;;;;5053220;28;20690;-61
2022/12/31 05:42:58;;;;;;;0.30;0.30;;;17.50;58.40;;;;;;5053879;28;20179;-62
2022/12/31 05:45:23;;;;;;;0.40;0.40;;;17.40;58.30;;;;;;5053453;28;20182;-62
2022/12/31 05:47:49;;;;;;;0.50;0.45;;;17.40;58.40;;;;;;5052933;28;20239;-61
2022/12/31 05:50:14;;;;;;;0.93;0.50;;;17.40;58.40;;;;;;5054383;28;20199;-61
2022/12/31 05:52:43;;;;;;;0.40;0.40;;;17.40;58.30;;;;;;5053372;28;20175;-61
2022/12/31 05:55:09;;;;;;;0.50;0.50;;;17.40;58.50;;;;;;5053058;28;20179;-61
2022/12/31 05:57:35;;;;;;;0.52;0.50;;;17.40;58.50;;;;;;5053379;28;20175;-61
2022/12/31 06:00:00;;;;;;;0.40;0.40;;;17.40;58.40;;;;;;5053336;28;20229;-61
2022/12/31 06:02:26;;;;;;;0.55;0.43;;;17.40;58.60;;;;;;5052929;28;20544;-61
2022/12/31 06:04:51;;;;;;;0.40;0.40;;;17.40;58.50;;;;;;5053158;28;20225;-61
2022/12/31 06:07:17;;;;;;;0.40;0.40;;;17.40;58.60;;;;;;5053568;28;20256;-61
2022/12/31 06:09:42;;;;;;;0.40;0.40;;;17.40;58.60;;;;;;5052539;28;20224;-61
2022/12/31 06:12:08;;;;;;;0.50;0.50;;;17.40;58.70;;;;;;5053352;28;20187;-61
2022/12/31 06:14:33;;;;;;;0.30;0.30;;;17.30;58.60;;;;;;5052627;28;20171;-61
2022/12/31 06:16:59;;;;;;;0.70;0.35;;;17.40;59.30;;;;;;5053207;28;20232;-61
2022/12/31 06:19:25;;;;;;;0.30;0.30;;;17.40;58.60;;;;;;5053271;28;20653;-61
2022/12/31 06:21:50;;;;;;;0.40;0.40;;;17.40;59.40;;;;;;5052631;28;20899;-61
2022/12/31 06:24:16;;;;;;;0.50;0.43;;;17.30;58.60;;;;;;5053371;28;20275;-61
2022/12/31 06:26:41;;;;;;;0.47;0.47;;;17.40;58.80;;;;;;5052599;28;20313;-61
2022/12/31 06:29:07;;;;;;;0.45;0.38;;;17.30;58.70;;;;;;5052673;28;20637;-60
2022/12/31 06:31:33;;;;;;;0.40;0.40;;;17.30;58.70;;;;;;5052950;28;20194;-60
2022/12/31 06:33:58;;;;;;;1.00;0.50;;;17.30;58.80;;;;;;5052143;28;20576;-61
2022/12/31 06:36:25;;;;;;;0.52;0.50;;;17.30;58.80;;;;;;5052418;28;20185;-61
2022/12/31 06:38:51;;;;;;;0.40;0.40;;;17.30;58.80;;;;;;5052824;28;20182;-61
2022/12/31 06:41:17;;;;;;;0.40;0.40;;;17.30;58.70;;;;;;5052649;28;20234;-61
2022/12/31 06:43:43;;;;;;;0.95;0.52;;;17.30;58.80;;;;;;5052216;28;20577;-61
2022/12/31 06:46:10;;;;;;;0.20;0.20;;;17.30;58.80;;;;;;5052902;28;20217;-61
2022/12/31 06:48:36;;;;;;;0.40;0.40;;;17.40;58.90;;;;;;5052491;28;20306;-61
2022/12/31 06:51:05;;;;;;;0.50;0.40;;;17.30;58.80;;;;;;5052525;28;20253;-61
2022/12/31 06:53:31;;;;;;;0.40;0.40;;;17.30;58.90;;;;;;5052602;28;20183;-61
2022/12/31 06:55:57;;;;;;;0.32;0.30;;;17.30;58.90;;;;;;5052599;28;20237;-61
2022/12/31 06:58:23;;;;;;;0.30;0.30;;;17.30;58.80;;;;;;5052167;28;20641;-61
2022/12/31 07:01:04;;;;;;;0.40;0.40;;;17.30;59.00;;;;;;5052349;28;20190;-61
2022/12/31 07:03:43;;;;;;;0.30;0.30;;;17.30;58.80;;;;;;5051781;28;20210;-60
2022/12/31 07:06:15;;;;;;;0.40;0.40;;;17.30;58.90;;;;;;5051507;28;20185;-61
2022/12/31 07:08:53;;;;;;;0.47;0.40;;;17.30;59.00;;;;;;5051001;28;20215;-60
2022/12/31 07:11:23;;;;;;;0.40;0.40;;;17.30;58.90;;;;;;5052027;28;20202;-60
2022/12/31 07:13:59;;;;;;;0.45;0.38;;;17.30;59.00;;;;;;5034682;28;20645;-61
2022/12/31 07:16:44;;;;;;;0.40;0.20;;;17.30;59.00;;;;;;5051496;28;20202;-61
2022/12/31 07:19:31;;;;;;;0.57;0.30;;;17.20;59.00;;;;;;5050946;28;20191;-61
2022/12/31 07:21:57;;;;;;;0.30;0.30;;;17.20;59.00;;;;;;5052713;28;20179;-61
2022/12/31 07:24:23;;;;;;;0.30;0.30;;;17.30;59.20;;;;;;5051369;28;20180;-61
2022/12/31 07:27:00;;;;;;;0.40;0.40;;;17.20;59.20;;;;;;5051598;28;20171;-61
2022/12/31 07:29:44;;;;;;;0.20;0.20;;;17.20;59.20;;;;;;5052441;28;20202;-61
2022/12/31 07:32:37;;;;;;;0.22;0.22;;;17.20;59.20;;;;;;5050769;28;20235;-61
2022/12/31 07:35:07;;;;;;;0.35;0.35;;;17.30;59.10;;;;;;5052631;28;20171;-61
2022/12/31 07:37:44;;;;;;;0.40;0.40;;;17.30;59.30;;;;;;5051836;28;20179;-61
2022/12/31 07:40:34;;;;;;;0.43;0.32;;;17.20;59.30;;;;;;5051838;28;20265;-62
2022/12/31 07:43:33;;;;;;;0.20;0.20;;;17.20;59.30;;;;;;5052261;28;20540;-62
2022/12/31 07:46:22;;;;;;;0.50;0.50;;;17.20;59.30;;;;;;5054111;28;20269;-62
2022/12/31 07:48:48;;;;;;;0.40;0.40;;;17.20;59.30;;;;;;5055575;28;20310;-62
2022/12/31 07:51:14;;;;;;;0.38;0.38;;;17.20;59.40;;;;;;5055718;28;20258;-62
2022/12/31 07:53:39;;;;;;;0.30;0.30;;;17.20;59.30;;;;;;5055510;28;20187;-62
2022/12/31 07:56:06;;;;;;;0.32;0.30;;;17.20;59.30;;;;;;5055940;28;20700;-62
2022/12/31 07:58:50;;;;;;;0.40;0.40;;;17.20;59.30;;;;;;5055422;28;20179;-62
2022/12/31 08:01:18;;;;;;;0.50;0.50;;;17.20;59.30;;;;;;5055365;28;20199;-62
2022/12/31 08:03:54;;;;;;;0.32;0.32;;;17.20;59.40;;;;;;5038221;28;20186;-62
2022/12/31 08:06:59;;;;;;;0.40;0.40;;;17.20;59.20;;;;;;5055484;28;20538;-62
2022/12/31 08:10:00;;;;;;;0.20;0.20;;;17.20;59.40;;;;;;5055063;28;20691;-61
2022/12/31 08:12:26;;;;;;;0.43;0.40;;;17.20;59.30;;;;;;5054418;28;20727;-61
2022/12/31 08:14:52;;;;;;;0.95;0.40;;;17.20;59.20;;;;;;5053488;28;20534;-62
2022/12/31 08:17:18;;;;;;;0.30;0.30;;;17.20;59.30;;;;;;5055507;28;20222;-62
2022/12/31 08:19:44;;;;;;;0.32;0.32;;;17.20;59.50;;;;;;5055009;28;20585;-68
2022/12/31 08:22:24;;;;;;;0.93;0.40;;;17.20;59.40;;;;;;5054966;28;20186;-68
2022/12/31 08:25:07;;;;;;;1.05;0.30;;;17.20;59.30;;;;;;5054536;28;20178;-68
2022/12/31 08:27:40;;;;;;;0.32;0.32;;;17.20;59.50;;;;;;5055845;28;20211;-65
2022/12/31 08:30:10;;;;;;;1.17;0.40;;;17.20;59.30;;;;;;5054831;28;20203;-64
2022/12/31 08:32:57;;;;;;;1.52;0.43;;;17.20;59.90;;;;;;5053607;28;20210;-64
2022/12/31 08:36:00;;;;;;;1.27;0.40;;;17.20;59.60;;;;;;5038546;28;20591;-65
2022/12/31 08:38:49;;;;;;;2.20;0.60;;;17.20;59.90;;;;;;5055009;28;20174;-66
2022/12/31 08:41:40;;;;;;;0.70;0.47;;;17.20;60.70;;;;;;5053795;28;20641;-65
2022/12/31 08:44:08;;;;;;;1.40;0.55;;;17.20;60.70;;;;;;5054715;28;20183;-65
2022/12/31 08:46:43;;;;;;;3.22;0.60;;;17.20;60.90;;;;;;5054578;28;20305;-65
2022/12/31 08:49:09;;;;;;;1.95;0.85;;;17.20;61.60;;;;;;5054807;28;20249;-65
2022/12/31 08:51:35;;;;;;;0.95;0.68;;;17.20;61.60;;;;;;5054312;28;20205;-65
2022/12/31 08:54:01;;;;;;;0.93;0.68;;;17.10;61.70;;;;;;5054736;28;20209;-66
2022/12/31 08:56:41;;;;;;;1.67;0.50;;;17.10;61.70;;;;;;5053519;28;20175;-65
2022/12/31 08:59:13;;;;;;;2.13;0.80;;;17.10;61.80;;;;;;5053555;28;20205;-65
2022/12/31 09:01:49;;;;;;;1.80;0.68;;;17.10;61.70;;;;;;5052702;28;20175;-65
2022/12/31 09:04:43;;;;;;;2.00;0.60;;;17.10;61.80;;;;;;5052859;28;20178;-65
2022/12/31 09:07:10;;;;;;;1.80;0.60;;;17.10;61.80;;;;;;5053713;28;20195;-65
2022/12/31 09:09:56;;;;;;;2.50;0.80;;;17.10;61.90;;;;;;5052940;28;20579;-65
2022/12/31 09:12:54;;;;;;;3.28;0.80;;;17.10;61.70;;;;;;5052653;28;20637;-66
2022/12/31 09:15:21;;;;;;;1.38;0.50;;;17.10;61.80;;;;;;5038150;28;20225;-65
2022/12/31 09:17:48;;;;;;;0.50;0.50;;;17.10;62.00;;;;;;5051993;28;20697;-65
2022/12/31 09:20:24;;;;;;;1.40;0.50;;;17.10;61.90;;;;;;5054412;28;20626;-65
2022/12/31 09:22:50;;;;;;;0.77;0.47;;;17.10;61.90;;;;;;5053946;28;20174;-65
2022/12/31 09:25:17;;;;;;;1.38;0.47;;;17.10;61.90;;;;;;5053540;28;20178;-65
2022/12/31 09:27:51;;;;;;;1.02;0.73;;;17.10;61.80;;;;;;5053571;28;20741;-65
2022/12/31 09:30:16;;;;;;;0.82;0.43;;;17.10;61.90;;;;;;5052800;28;20207;-67
2022/12/31 09:32:45;;;;;;;0.52;0.40;;;17.10;61.00;;;;;;5053213;28;20617;-67
2022/12/31 09:35:53;;;;;;;4.55;0.90;;;17.10;60.90;;;;;;5053920;28;20172;-67
2022/12/31 09:38:25;;;;;;;1.33;0.88;;;17.20;60.60;;;;;;5031831;28;20607;-63
2022/12/31 09:41:07;;;;;;;1.70;0.57;;;17.20;60.50;;;;;;5014734;28;20555;-67
2022/12/31 09:43:51;;;;;;;1.95;0.70;;;17.20;60.60;;;;;;5038132;28;20213;-68
2022/12/31 09:46:30;;;;;;;1.48;0.73;;;17.20;60.50;;;;;;5053282;28;20652;-64
2022/12/31 09:49:20;;;;;;;0.80;0.73;;;17.20;60.50;;;;;;5052635;28;20206;-63
2022/12/31 09:52:17;;;;;;;1.52;0.60;;;17.20;61.30;;;;;;5052366;28;20182;-68
2022/12/31 09:54:53;;;;;;;6.32;1.23;;;17.30;61.30;;;;;;5051954;28;20183;-67
2022/12/31 09:57:54;;;;;;;1.15;0.60;;;17.30;60.70;;;;;;5052106;28;20222;-68
2022/12/31 10:00:37;;;;;;;0.85;0.60;;;17.30;60.90;;;;;;5053244;28;20218;-67
2022/12/31 10:03:22;;;;;;;0.93;0.47;;;17.30;60.80;;;;;;5052625;28;20171;-67
2022/12/31 10:06:13;;;;;;;2.35;0.93;;;17.40;60.90;;;;;;5051999;28;20721;-67
2022/12/31 10:09:08;;;;;;;1.67;0.47;;;17.40;60.90;;;;;;5051456;28;20673;-67
2022/12/31 10:11:47;;;;;;;2.42;0.70;;;17.40;60.80;;;;;;5038003;28;20175;-68
2022/12/31 10:14:23;;;;;;;0.88;0.60;;;17.40;60.90;;;;;;5051816;28;20186;-67
2022/12/31 10:17:14;;;;;;;1.70;0.55;;;17.40;60.80;;;;;;5051652;28;20175;-67
2022/12/31 10:19:46;;;;;;;1.33;0.57;;;17.40;60.90;;;;;;5037981;28;20233;-68
2022/12/31 10:22:33;;;;;;;1.27;0.63;;;17.40;61.30;;;;;;5051409;28;20183;-71
2022/12/31 10:25:20;;;;;;;2.13;0.80;;;17.40;61.30;;;;;;5052729;28;20175;-70
2022/12/31 10:28:18;;;;;;;1.67;0.75;;;17.40;61.30;;;;;;5051379;28;20203;-65
2022/12/31 10:30:51;;;;;;;1.65;0.60;;;17.40;61.60;;;;;;5052653;28;20642;-65
2022/12/31 10:33:34;;;;;;;1.15;0.50;;;17.40;60.80;;;;;;5051552;28;20193;-66
2022/12/31 10:36:07;;;;;;;1.17;0.75;;;17.30;60.70;;;;;;5036039;28;20210;-66
2022/12/31 10:39:02;;;;;;;0.82;0.60;;;17.30;60.50;;;;;;5051199;28;20221;-66
2022/12/31 10:41:54;;;;;;;0.63;0.60;;;17.30;60.60;;;;;;5051448;28;20179;-66
2022/12/31 10:44:37;;;;;;;3.40;0.88;;;17.30;60.80;;;;;;5035550;28;20206;-66
2022/12/31 10:47:08;;;;;;;0.85;0.50;;;17.30;61.20;;;;;;5051421;28;20571;-66
2022/12/31 10:49:39;;;;;;;1.00;0.60;;;17.30;60.60;;;;;;5051880;28;20529;-65
2022/12/31 10:52:29;;;;;;;1.38;0.70;;;17.30;60.60;;;;;;5051484;28;20665;-66
2022/12/31 10:55:04;;;;;;;0.80;0.60;;;17.30;60.60;;;;;;5052571;28;20171;-66
2022/12/31 10:58:07;;;;;;;0.95;0.60;;;17.30;60.90;;;;;;5062260;28;20180;-67
2022/12/31 11:00:44;;;;;;;0.65;0.63;;;17.30;60.80;;;;;;5054329;28;20182;-66
2022/12/31 11:03:41;;;;;;;0.95;0.50;;;17.30;60.80;;;;;;5055319;28;20174;-66
2022/12/31 11:06:12;;;;;;;1.15;0.80;;;17.30;60.70;;;;;;5071425;28;20637;-66
2022/12/31 11:09:10;;;;;;;1.38;0.60;;;17.30;60.80;;;;;;5072066;28;20213;-66
2022/12/31 11:11:59;;;;;;;2.35;1.15;;;17.30;60.80;;;;;;5051909;28;20183;-67
2022/12/31 11:14:49;;;;;;;2.60;0.93;;;17.30;60.70;;;;;;5031636;28;20259;-66
2022/12/31 11:17:17;;;;;;;1.33;0.75;;;17.30;60.70;;;;;;5031973;28;20237;-66
2022/12/31 11:19:53;;;;;;;1.70;0.70;;;17.30;61.20;;;;;;5032925;28;20253;-67
2022/12/31 11:22:41;;;;;;;1.10;0.93;;;17.30;60.80;;;;;;5035132;28;20176;-66
2022/12/31 11:25:24;;;;;;;0.73;0.73;;;17.30;61.00;;;;;;5052001;28;20383;-66
2022/12/31 11:28:17;;;;;;;1.05;0.68;;;17.30;61.20;;;;;;5039985;28;20206;-66
2022/12/31 11:31:13;;;;;;;0.98;0.65;;;17.30;60.60;;;;;;5036187;28;20168;-66
2022/12/31 11:33:39;;;;;;;2.38;0.80;;;17.30;60.60;;;;;;5052773;28;20541;-65
2022/12/31 11:36:32;;;;;;;4.50;1.17;;;17.30;60.70;;;;;;5055779;28;20633;-66
2022/12/31 11:39:12;;;;;;;1.17;0.77;;;17.30;60.70;;;;;;5055772;28;20255;-66
2022/12/31 11:41:55;;;;;;;1.48;0.60;;;17.30;61.00;;;;;;5055471;28;20206;-66
2022/12/31 11:44:43;;;;;;;1.42;0.70;;;17.30;60.90;;;;;;5055124;28;20185;-66
2022/12/31 11:47:33;;;;;;;0.80;0.80;;;17.30;60.50;;;;;;5044615;28;20183;-66
2022/12/31 11:50:20;;;;;;;1.45;0.80;;;17.30;60.60;;;;;;5054613;28;20179;-65
2022/12/31 11:53:31;;;;;;;2.38;0.90;;;17.30;60.50;;;;;;5054109;28;20179;-65
2022/12/31 11:56:16;;;;;;;1.83;0.98;;;17.30;60.50;;;;;;5017105;28;20183;-66
2022/12/31 11:58:45;;;;;;;2.85;0.90;;;17.30;60.90;;;;;;5033478;28;20259;-66
2022/12/31 12:01:12;;;;;;;1.35;0.70;;;17.30;60.60;;;;;;5027381;28;20192;-65
2022/12/31 12:03:42;;;;;;;1.77;0.70;;;17.30;60.50;;;;;;5054362;28;20185;-66
2022/12/31 12:06:10;;;;;;;1.17;0.73;;;17.30;60.40;;;;;;5058089;28;20628;-64
2022/12/31 12:08:36;;;;;;;1.85;0.80;;;17.30;60.80;;;;;;5073939;28;20276;-64
2022/12/31 12:11:35;;;;;;;1.75;0.93;;;17.30;60.70;;;;;;5073898;28;20626;-64
2022/12/31 12:14:00;;;;;;;1.60;0.90;;;17.30;61.20;;;;;;5066599;28;20187;-65
2022/12/31 12:16:26;;;;;;;3.67;0.90;;;17.30;61.50;;;;;;5075586;28;20184;-65
2022/12/31 12:19:05;;;;;;;1.48;0.65;;;17.30;61.90;;;;;;5073597;28;20249;-66
2022/12/31 12:21:31;;;;;;;0.98;0.80;;;17.30;61.70;;;;;;5074857;28;20202;-64
2022/12/31 12:24:13;;;;;;;1.83;0.80;;;17.30;61.90;;;;;;5074184;28;20600;-65
2022/12/31 12:26:44;;;;;;;0.90;0.70;;;17.40;62.20;;;;;;5073921;28;20236;-64
2022/12/31 12:29:20;;;;;;;2.08;0.98;;;17.40;62.30;;;;;;5074999;28;20209;-65
2022/12/31 12:32:02;;;;;;;1.50;0.70;;;17.50;62.40;;;;;;5069925;28;20221;-65
2022/12/31 12:34:35;;;;;;;4.30;1.10;;;17.60;62.50;;;;;;5054995;28;20206;-64
2022/12/31 12:37:01;;;;;;;4.60;0.90;;;17.70;62.40;;;;;;5055137;28;20171;-65
2022/12/31 12:39:31;;;;;;;3.08;0.98;;;17.80;62.00;;;;;;5054942;28;20201;-66
2022/12/31 12:42:04;;;;;;;1.58;0.88;;;18.00;61.60;;;;;;5054996;28;20596;-66
2022/12/31 12:44:30;;;;;;;1.23;0.70;;;18.20;62.20;;;;;;5053752;28;20233;-64
2022/12/31 12:46:55;;;;;;;1.85;0.93;;;18.40;61.10;;;;;;5054853;28;20175;-68
2022/12/31 12:49:25;;;;;;;2.05;0.80;;;18.60;60.70;;;;;;5053336;28;20177;-66
2022/12/31 12:52:06;;;;;;;1.58;0.77;;;18.70;60.00;;;;;;5037134;28;20210;-67
2022/12/31 12:54:32;;;;;;;4.70;0.95;;;18.90;59.60;;;;;;5054692;28;20242;-67
2022/12/31 12:57:05;;;;;;;1.05;0.80;;;19.00;59.30;;;;;;5054134;28;20701;-66
2022/12/31 12:59:52;;;;;;;0.98;0.55;;;19.20;59.00;;;;;;5053105;28;20283;-67
2022/12/31 13:02:31;;;;;;;2.45;0.90;;;19.20;58.70;;;;;;5054418;28;20641;-65
2022/12/31 13:05:19;;;;;;;2.15;1.10;;;19.30;58.70;;;;;;5033446;28;20171;-66
2022/12/31 13:07:59;;;;;;;3.90;0.90;;;19.30;58.70;;;;;;5032856;28;20682;-66
2022/12/31 13:10:30;;;;;;;1.40;0.65;;;19.40;58.60;;;;;;5034188;28;20175;-67
2022/12/31 13:13:16;;;;;;;2.30;0.93;;;19.40;58.60;;;;;;5034597;28;20179;-66
2022/12/31 13:15:54;;;;;;;1.75;1.02;;;19.40;58.50;;;;;;5034155;28;20249;-67
2022/12/31 13:18:41;;;;;;;2.95;0.90;;;19.40;58.40;;;;;;5033718;28;20238;-68
2022/12/31 13:21:43;;;;;;;2.33;1.45;;;19.50;58.40;;;;;;5033157;28;20186;-67
2022/12/31 13:24:12;;;;;;;2.08;1.00;;;19.50;58.40;;;;;;5032872;28;20179;-67
2022/12/31 13:26:46;;;;;;;2.33;0.82;;;19.40;58.40;;;;;;5032758;28;20714;-66
2022/12/31 13:29:15;;;;;;;3.13;1.20;;;19.40;58.50;;;;;;5034149;28;20215;-66